MADIS QC Values

Here are the MADIS QC values for some of the networks in the IEM. Red numbers indicate that the observed value is too high. Blue numbers indicate that the observed value is too low. The 'QC' value is an average of all of the QC routines MADIS runs. The 'Spatial' column is a result of the Spatial Consistency Check.

Site ID: Station Name: Ob Valid: (UTC) Air Temperature [F] Dewpoint [F] Altimeter [inch]
OB: QC: Spatial: OB: QC: Spatial: OB: QC: Spatial:
AWGWASHINGTON 25 4:35Z 34MM21MM29.85MM
CNCCHARITON 25 4:35Z 37MM27MM29.82MM
CSQCRESTON 25 4:35Z 37MM30MM29.81MM
OXVKnoxville 25 4:35Z 41MM27MM29.82MM
FSWFORT MADISON 25 4:35Z 36MM21MM29.89MM
EOKKEOKUK MUNI 25 4:35Z 36MM18MM29.89MM
ICLCLARINDA 25 4:35Z 32MM25MM29.83MM
AIOATLANTIC 25 4:35Z 32MM27MM29.78MM
OLZOELWEIN 25 4:35Z 34MM19MM29.79MM
SLBStorm Lake 25 4:35Z 43MM23MM29.74MM
IKVANKENY 25 4:35Z 39MM27MM29.81MM
SDASHENANDOAH MUNI 25 4:35Z 39MM23MM29.79MM
RDKRED OAK 25 4:35Z 30MM21MM29.8MM
DEHDECORAH 24 23:55Z 37MM18MM29.83MM
IIBINDEPENDENCE 25 4:35Z 32MM19MM29.83MM
FXYForest City 25 4:35Z 34MM27MM29.72MM
I75Osceola 25 4:35Z 40MM31MM29.82MM
LRJLE MARS 25 4:35Z 34MM25MM29.72MM
CCYCHARLES CITY 25 4:35Z 34MM23MM29.75MM
AXAALGONA 25 4:35Z 34MM27MM29.71MM
CINCARROLL 25 4:35Z 37MM28MM29.75MM
CWICLINTON 25 3:56Z 30MM18MM29.91MM
ADUAUDUBON 25 4:35Z 28MM25MM29.78MM
MUTMUSCATINE 25 4:35Z 34MM19MM29.9MM
IFAIowa Falls 25 4:35Z 37MM25MM29.77MM
MXOMONTICELLO MUNI 25 4:35Z 30MM18MM29.83MM
GGIGrinnell 25 4:35Z 37MM26MM29.83MM
EBSWebster City 25 4:30Z 34MM18MM29.74MM
CAVCLARION 25 4:35Z 37MM28MM29.74MM
BNWBOONE MUNI 25 4:35Z 39MM30MM29.76MM
DNSDENISON 25 4:35Z 36MM28MM29.78MM
FFLFAIRFIELD 25 4:35Z 37MM16MM29.85MM
TNUNEWTON MUNI 25 4:35Z 30MM25MM29.81MM
ALOWaterloo 25 3:54Z 36MM20MM29.8MM
CIDCEDAR RAPIDS 25 3:52Z 35MM19MM29.84MM
FODFORT DODGE 25 3:56Z 42MM27MM29.76MM
DVNQUAD CITIES 25 3:52Z 34MM17MM29.92MM
SUXSIOUX CITY 25 3:52Z 38MM24MM29.76MM
ESTESTHERVILLE 25 3:52Z 36MM27MM29.7MM
AMWAmes 25 3:53Z 37MM25MM29.8MM
TVKCenterville 25 4:35Z 39MM23MM29.85MM
CKPCherokee 25 4:35Z 33MM27MM29.75MM
HNRHARLAN 25 4:35Z 32MM23MM29.78MM
MPZMOUNT PLEASANT 25 4:35Z 34MM21MM29.88MM
PEAPELLA 25 4:35Z 38MM25MM29.83MM
VTIVINTON 25 4:35Z 34MM20MM29.82MM
OOAOskaloosa 25 4:35Z 35MM24MM29.84MM
PROPerry 25 4:35Z 37MM27MM29.77MM
BRLBURLINGTON 25 3:53Z 36MM19MM29.91MM
MIWMARSHALLTOWN 25 3:53Z 39MM24MM29.8MM
IOWIOWA CITY 25 3:52Z 32MM19MM29.9MM
OTMOTTUMWA 25 3:53Z 38MM23MM29.85MM
DBQDUBUQUE 25 3:53Z 31MM17MM29.85MM
MCWMASON CITY 25 3:53Z 32MM24MM29.75MM
LWDLAMONI 25 3:53Z 41MM29MM29.84MM
SPWSPENCER 25 3:53Z 37MM26MM29.72MM
DSMDes Moines 25 3:54Z 42MM27MM29.82MM
CBFCOUNCIL BLUFFS 25 4:35Z 52MM21MM29.77MM
SHLSHELDON 25 4:35Z 39MM27MM29.7MM
ORCOrange City 2019 Feb 28 22:15Z 12-0.31.110-2.1-2.330.210.010.01